Time,TemperatureF,DewpointF,PressureIn,WindDirection,WindDirectionDegrees,WindSpeedMPH,WindSpeedGustMPH,Humidity,HourlyPrecipIn,Conditions,Clouds,dailyrainin,SoftwareType,DateUTC
2013-05-10 13:09:00,82.9,61.2,29.80,ESE,112,2.7,-999.0,48,-99.99,,,0.00,Acu-Link.com,2013-05-10 17:09:00,
2013-05-10 13:24:00,83.3,60.3,29.81,NNW,337,2.2,-999.0,46,-99.99,,,0.00,Acu-Link.com,2013-05-10 17:24:00,
2013-05-10 13:39:00,79.2,56.0,29.81,SW,225,1.7,-999.0,45,-99.99,,,0.00,Acu-Link.com,2013-05-10 17:39:00,
2013-05-10 13:54:00,82.2,57.4,29.80,NNW,337,2.2,-999.0,43,-99.99,,,0.00,Acu-Link.com,2013-05-10 17:54:00,
2013-05-10 14:10:00,79.7,56.5,29.80,ESE,112,3.7,-999.0,45,-99.99,,,0.00,Acu-Link.com,2013-05-10 18:10:00,
2013-05-10 14:25:00,78.1,55.0,29.81,SSW,202,2.7,-999.0,45,-99.99,,,0.00,Acu-Link.com,2013-05-10 18:25:00,
2013-05-10 14:40:00,79.5,55.7,29.80,SSW,202,4.2,-999.0,44,-99.99,,,0.00,Acu-Link.com,2013-05-10 18:40:00,
2013-05-10 14:55:00,80.2,56.3,29.81,SW,225,4.2,-999.0,44,-99.99,,,0.00,Acu-Link.com,2013-05-10 18:55:00,
2013-05-10 15:10:00,80.8,56.2,29.81,SW,225,2.2,-999.0,43,-99.99,,,0.00,Acu-Link.com,2013-05-10 19:10:00,
2013-05-10 15:25:00,82.6,57.2,29.80,NNW,337,3.2,-999.0,42,-99.99,,,0.00,Acu-Link.com,2013-05-10 19:25:00,
2013-05-10 15:41:00,83.5,57.3,29.81,NNW,337,2.7,-999.0,41,-99.99,,,0.00,Acu-Link.com,2013-05-10 19:41:00,
2013-05-10 15:56:00,81.1,55.8,29.80,West,270,4.7,-999.0,42,-99.99,,,0.00,Acu-Link.com,2013-05-10 19:56:00,
2013-05-10 16:11:00,81.1,57.1,29.80,SSW,202,4.2,-999.0,44,-99.99,,,0.00,Acu-Link.com,2013-05-10 20:11:00,
2013-05-10 16:26:00,81.1,55.8,29.79,WSW,247,2.7,-999.0,42,-99.99,,,0.00,Acu-Link.com,2013-05-10 20:26:00,
2013-05-10 16:41:00,81.7,57.0,29.78,North,0,3.2,-999.0,43,-99.99,,,0.00,Acu-Link.com,2013-05-10 20:41:00,
2013-05-10 16:56:00,80.1,54.9,29.78,WSW,247,2.2,-999.0,42,-99.99,,,0.00,Acu-Link.com,2013-05-10 20:56:00,
2013-05-10 17:11:00,80.4,55.2,29.78,ENE,67,2.7,-999.0,42,-99.99,,,0.00,Acu-Link.com,2013-05-10 21:11:00,
2013-05-10 17:26:00,80.8,55.5,29.78,WSW,247,1.1,-999.0,42,-99.99,,,0.00,Acu-Link.com,2013-05-10 21:26:00,
2013-05-10 17:41:00,79.2,58.4,29.77,ENE,67,2.7,-999.0,49,-99.99,,,0.00,Acu-Link.com,2013-05-10 21:41:00,
2013-05-10 17:57:00,78.4,58.8,29.77,SSE,157,2.7,-999.0,51,-99.99,,,0.00,Acu-Link.com,2013-05-10 21:57:00,
2013-05-10 18:12:00,78.1,58.5,29.76,SE,135,6.3,-999.0,51,-99.99,,,0.00,Acu-Link.com,2013-05-10 22:12:00,
2013-05-10 18:27:00,77.7,59.2,29.76,SSE,157,5.3,-999.0,53,-99.99,,,0.00,Acu-Link.com,2013-05-10 22:27:00,
2013-05-10 18:42:00,75.6,58.3,29.77,SE,135,3.7,-999.0,55,-99.99,,,0.00,Acu-Link.com,2013-05-10 22:42:00,
2013-05-10 18:57:00,75.7,59.4,29.77,SSW,202,4.2,-999.0,57,-99.99,,,0.00,Acu-Link.com,2013-05-10 22:57:00,
2013-05-10 19:12:00,74.1,58.8,29.79,South,180,3.7,-999.0,59,-99.99,,,0.00,Acu-Link.com,2013-05-10 23:12:00,
2013-05-10 19:27:00,73.0,58.7,29.79,WSW,247,4.7,-999.0,61,-99.99,,,0.00,Acu-Link.com,2013-05-10 23:27:00,
2013-05-10 19:42:00,72.0,58.3,29.79,East,90,2.2,-999.0,62,-99.99,,,0.00,Acu-Link.com,2013-05-10 23:42:00,
2013-05-10 19:57:00,71.8,56.7,29.79,NNW,337,3.7,-999.0,59,-99.99,,,0.00,Acu-Link.com,2013-05-10 23:57:00,
2013-05-10 20:13:00,71.6,55.5,29.79,SW,225,5.3,-999.0,57,-99.99,,,0.00,Acu-Link.com,2013-05-11 00:13:00,
2013-05-10 20:28:00,70.5,55.9,29.79,ESE,112,1.7,-999.0,60,-99.99,,,0.00,Acu-Link.com,2013-05-11 00:28:00,
2013-05-10 20:43:00,69.6,55.1,29.80,SSE,157,3.7,-999.0,60,-99.99,,,0.00,Acu-Link.com,2013-05-11 00:43:00,
2013-05-10 20:58:00,68.9,55.8,29.79,SSE,157,3.2,-999.0,63,-99.99,,,0.00,Acu-Link.com,2013-05-11 00:58:00,
2013-05-10 21:13:00,68.0,55.8,29.80,South,180,1.7,-999.0,65,-99.99,,,0.00,Acu-Link.com,2013-05-11 01:13:00,
2013-05-10 21:28:00,66.9,56.0,29.81,SSE,157,3.7,-999.0,68,-99.99,,,0.00,Acu-Link.com,2013-05-11 01:28:00,
2013-05-10 21:43:00,67.1,56.6,29.81,ESE,112,1.7,-999.0,69,-99.99,,,0.00,Acu-Link.com,2013-05-11 01:43:00,
2013-05-10 21:58:00,66.6,56.9,29.81,SSW,202,2.2,-999.0,71,-99.99,,,0.00,Acu-Link.com,2013-05-11 01:58:00,
2013-05-10 22:13:00,66.9,56.8,29.80,South,180,3.2,-999.0,70,-99.99,,,0.00,Acu-Link.com,2013-05-11 02:13:00,
2013-05-10 22:28:00,66.6,56.9,29.81,SSW,202,4.2,-999.0,71,-99.99,,,0.00,Acu-Link.com,2013-05-11 02:28:00,
2013-05-10 22:44:00,66.2,56.5,29.80,SSW,202,2.7,-999.0,71,-99.99,,,0.00,Acu-Link.com,2013-05-11 02:44:00,
2013-05-10 22:59:00,66.2,56.1,29.81,South,180,2.7,-999.0,70,-99.99,,,0.00,Acu-Link.com,2013-05-11 02:59:00,
2013-05-10 23:14:00,65.7,56.4,29.80,South,180,3.7,-999.0,72,-99.99,,,0.00,Acu-Link.com,2013-05-11 03:14:00,
2013-05-10 23:29:00,65.5,56.2,29.80,NW,315,1.7,-999.0,72,-99.99,,,0.00,Acu-Link.com,2013-05-11 03:29:00,
2013-05-10 23:44:00,65.1,56.2,29.80,South,180,3.2,-999.0,73,-99.99,,,0.00,Acu-Link.com,2013-05-11 03:44:00,
2013-05-10 23:59:00,64.6,56.1,29.81,SSW,202,2.2,-999.0,74,-99.99,,,0.00,Acu-Link.com,2013-05-11 03:59:00,